createdAt,value
2019-05-21T00:01:31.371Z,143.57
2019-05-21T00:04:00.368Z,142.85
2019-05-21T00:06:29.322Z,144.95
2019-05-21T00:08:58.191Z,141.70
2019-05-21T00:11:27.059Z,140.03
2019-05-21T00:13:55.931Z,127.42
2019-05-21T00:16:25.128Z,119.80
2019-05-21T00:18:53.987Z,110.50
2019-05-21T00:21:22.855Z,114.25
2019-05-21T00:23:51.723Z,114.92
2019-05-21T00:26:20.651Z,95.03
2019-05-21T00:29:07.604Z,93.82
2019-05-21T00:31:54.558Z,87.65
2019-05-21T00:34:44.081Z,88.85
2019-05-21T00:37:30.544Z,83.78
2019-05-21T00:40:17.988Z,78.37
2019-05-21T00:42:46.920Z,72.62
2019-05-21T00:45:15.785Z,68.75
2019-05-21T00:47:47.297Z,75.00
2019-05-21T00:50:16.231Z,72.45
2019-05-21T00:52:45.098Z,62.90
2019-05-21T00:55:13.956Z,60.60
2019-05-21T00:57:42.819Z,58.87
2019-05-21T01:00:12.165Z,61.95
2019-05-21T01:02:41.227Z,62.43
2019-05-21T01:05:10.067Z,54.05
2019-05-21T01:07:38.935Z,53.05
2019-05-21T01:10:07.963Z,55.20
2019-05-21T01:12:36.823Z,47.20
2019-05-21T01:15:07.047Z,50.45
2019-05-21T01:17:35.906Z,47.25
2019-05-21T01:20:04.943Z,50.25
2019-05-21T01:22:33.801Z,45.17
2019-05-21T01:25:02.666Z,49.10
2019-05-21T01:27:31.513Z,46.85
2019-05-21T01:30:00.466Z,52.03
2019-05-21T01:32:29.324Z,48.28
2019-05-21T01:34:58.181Z,45.50
2019-05-21T01:37:27.280Z,44.58
2019-05-21T01:39:56.130Z,45.05
2019-05-21T01:42:24.995Z,42.70
2019-05-21T01:44:53.851Z,40.30
2019-05-21T01:47:22.715Z,42.38
2019-05-21T01:49:51.571Z,42.93
2019-05-21T01:52:20.433Z,40.15
2019-05-21T01:54:49.291Z,39.58
2019-05-21T01:57:18.151Z,37.48
2019-05-21T01:59:47.031Z,46.50
2019-05-21T02:02:15.891Z,33.02
2019-05-21T02:04:44.779Z,35.15
2019-05-21T02:07:13.631Z,32.95
2019-05-21T02:09:44.155Z,31.07
2019-05-21T02:12:13.012Z,29.10
2019-05-21T02:14:41.880Z,27.67
2019-05-21T02:17:10.758Z,26.60
2019-05-21T02:19:39.619Z,27.62
2019-05-21T02:22:08.509Z,27.35
2019-05-21T02:24:37.364Z,24.15
2019-05-21T02:27:06.245Z,26.52
2019-05-21T02:29:36.168Z,26.35
2019-05-21T02:32:05.282Z,24.57
2019-05-21T02:34:34.165Z,29.57
2019-05-21T02:37:06.094Z,27.50
2019-05-21T02:39:33.625Z,27.00
2019-05-21T02:42:02.533Z,24.77
2019-05-21T02:44:31.398Z,25.57
2019-05-21T02:47:00.253Z,28.12
2019-05-21T02:49:29.133Z,23.27
2019-05-21T02:51:58.008Z,25.23
2019-05-21T02:54:39.947Z,27.85
2019-05-21T02:56:57.481Z,25.55
2019-05-21T02:59:26.408Z,26.20
2019-05-21T03:01:56.899Z,29.52
2019-05-21T03:04:25.780Z,23.67
2019-05-21T03:06:56.271Z,20.30
2019-05-21T03:09:25.215Z,18.62
2019-05-21T03:11:54.095Z,19.35
2019-05-21T03:14:22.984Z,17.60
2019-05-21T03:16:52.144Z,18.35
2019-05-21T03:19:21.000Z,20.12
2019-05-21T03:21:49.881Z,14.18
2019-05-21T03:24:18.730Z,14.73
2019-05-21T03:26:47.608Z,13.20
2019-05-21T03:29:16.724Z,13.80
2019-05-21T03:31:45.594Z,11.33
2019-05-21T03:34:14.455Z,9.10
2019-05-21T03:36:43.332Z,13.30
2019-05-21T03:39:12.187Z,10.80
2019-05-21T03:41:41.043Z,10.58
2019-05-21T03:44:09.916Z,10.80
2019-05-21T03:46:38.795Z,11.50
2019-05-21T03:49:07.656Z,10.03
2019-05-21T03:51:36.758Z,10.55
2019-05-21T03:54:05.607Z,12.13
2019-05-21T03:56:34.487Z,12.95
2019-05-21T03:59:03.497Z,9.93
2019-05-21T04:01:32.377Z,8.70
2019-05-21T04:04:01.224Z,10.10
2019-05-21T04:06:30.101Z,11.48
2019-05-21T04:08:58.947Z,9.40
2019-05-21T04:11:28.795Z,10.20
2019-05-21T04:13:57.648Z,14.13
2019-05-21T04:16:30.956Z,10.32
2019-05-21T04:19:10.423Z,9.73
2019-05-21T04:21:39.308Z,8.45
2019-05-21T04:24:09.281Z,10.53
2019-05-21T04:26:38.617Z,7.90
2019-05-21T04:29:07.495Z,9.00
2019-05-21T04:31:36.341Z,9.08
2019-05-21T04:34:05.445Z,7.10
2019-05-21T04:36:34.287Z,6.90
2019-05-21T04:39:04.003Z,6.97
2019-05-21T04:41:32.850Z,6.45
2019-05-21T04:44:02.693Z,7.28
2019-05-21T04:46:31.551Z,6.80
2019-05-21T04:49:00.405Z,5.90
2019-05-21T04:51:29.290Z,6.20
2019-05-21T04:53:58.120Z,6.65
2019-05-21T04:56:26.982Z,7.22
2019-05-21T04:58:55.836Z,8.55
2019-05-21T05:01:24.944Z,6.12
2019-05-21T05:03:53.795Z,7.15
2019-05-21T05:06:22.667Z,6.90
2019-05-21T05:08:51.523Z,6.05
2019-05-21T05:11:20.383Z,6.78
2019-05-21T05:13:49.227Z,6.25
2019-05-21T05:16:19.067Z,7.17
2019-05-21T05:18:47.919Z,7.33
2019-05-21T05:21:16.800Z,5.62
2019-05-21T05:23:45.684Z,6.47
2019-05-21T05:26:14.558Z,5.70
2019-05-21T05:28:43.424Z,5.30
2019-05-21T05:31:15.187Z,7.85
2019-05-21T05:33:43.099Z,8.40
2019-05-21T05:36:12.055Z,5.75
2019-05-21T05:38:40.910Z,6.17
2019-05-21T05:41:09.762Z,6.03
2019-05-21T05:43:38.846Z,5.35
2019-05-21T05:46:07.692Z,9.43
2019-05-21T05:48:38.186Z,5.45
2019-05-21T05:51:08.198Z,5.30
2019-05-21T05:53:47.748Z,4.97
2019-05-21T05:56:16.887Z,6.78
2019-05-21T05:58:45.744Z,6.97
2019-05-21T06:01:14.592Z,7.47
2019-05-21T06:03:43.447Z,7.60
2019-05-21T06:06:12.295Z,7.55
2019-05-21T06:08:41.147Z,8.38
2019-05-21T06:11:10.011Z,8.58
2019-05-21T06:13:38.935Z,9.05
2019-05-21T06:16:07.795Z,8.33
2019-05-21T06:18:36.653Z,8.68
2019-05-21T06:21:05.503Z,11.83
2019-05-21T06:23:34.359Z,10.03
2019-05-21T06:26:03.420Z,8.75
2019-05-21T06:28:33.536Z,9.38
2019-05-21T06:31:02.385Z,9.05
2019-05-21T06:33:31.226Z,8.58
2019-05-21T06:36:00.083Z,8.28
2019-05-21T06:38:28.929Z,8.93
2019-05-21T06:40:57.783Z,9.85
2019-05-21T06:43:26.635Z,9.18
2019-05-21T06:45:55.497Z,7.42
2019-05-21T06:48:24.347Z,7.83
2019-05-21T06:50:53.216Z,7.55
2019-05-21T06:53:22.376Z,7.25
2019-05-21T06:55:51.260Z,7.00
2019-05-21T06:58:20.464Z,8.00
2019-05-21T07:00:49.323Z,10.45
2019-05-21T07:03:18.176Z,9.98
2019-05-21T07:05:58.329Z,9.93
2019-05-21T07:08:32.078Z,10.15
2019-05-21T07:10:48.367Z,9.48
2019-05-21T07:13:17.241Z,8.13
2019-05-21T07:15:46.088Z,12.58
2019-05-21T07:18:14.963Z,8.40
2019-05-21T07:20:43.883Z,8.98
2019-05-21T07:23:12.732Z,9.93
2019-05-21T07:25:41.591Z,6.40
2019-05-21T07:28:10.444Z,6.87
2019-05-21T07:30:39.299Z,6.10
2019-05-21T07:33:08.174Z,5.78
2019-05-21T07:35:37.083Z,7.42
2019-05-21T07:38:05.938Z,4.70
2019-05-21T07:40:34.862Z,6.35
2019-05-21T07:43:03.745Z,7.35
2019-05-21T07:45:32.592Z,6.45
2019-05-21T07:48:01.451Z,6.33
2019-05-21T07:50:30.311Z,5.80
2019-05-21T07:52:59.167Z,6.62
2019-05-21T07:55:28.024Z,5.12
2019-05-21T07:57:56.878Z,6.05
2019-05-21T08:00:25.799Z,6.15
2019-05-21T08:02:54.659Z,5.70
2019-05-21T08:05:23.511Z,6.12
2019-05-21T08:07:52.419Z,4.97
2019-05-21T08:10:21.276Z,5.90
2019-05-21T08:12:50.203Z,5.97
2019-05-21T08:15:19.129Z,6.08
2019-05-21T08:17:47.978Z,6.97
2019-05-21T08:20:17.975Z,6.08
2019-05-21T08:22:46.831Z,7.45
2019-05-21T08:25:15.684Z,9.73
2019-05-21T08:27:44.535Z,5.30
2019-05-21T08:30:14.686Z,6.87
2019-05-21T08:32:43.527Z,6.80
2019-05-21T08:35:12.612Z,6.58
2019-05-21T08:37:41.469Z,5.60
2019-05-21T08:40:11.141Z,5.85
2019-05-21T08:42:40.054Z,5.67
2019-05-21T08:45:09.451Z,4.55
2019-05-21T08:47:38.299Z,4.40
2019-05-21T08:50:10.547Z,4.37
2019-05-21T08:52:39.390Z,5.58
2019-05-21T08:55:08.311Z,3.95
2019-05-21T08:57:37.157Z,3.85
2019-05-21T09:00:06.908Z,3.30
2019-05-21T09:02:35.743Z,4.55
2019-05-21T09:05:06.138Z,5.12
2019-05-21T09:07:34.987Z,5.70
2019-05-21T09:10:05.583Z,6.85
2019-05-21T09:12:34.439Z,4.90
2019-05-21T09:15:04.402Z,4.50
2019-05-21T09:17:33.496Z,9.10
2019-05-21T09:20:02.589Z,8.33
2019-05-21T09:22:31.747Z,4.62
2019-05-21T09:25:00.603Z,6.10
2019-05-21T09:27:29.460Z,4.50
2019-05-21T09:29:58.589Z,5.92
2019-05-21T09:32:27.541Z,10.00
2019-05-21T09:34:56.443Z,6.97
2019-05-21T09:37:25.572Z,8.78
2019-05-21T09:39:54.423Z,7.65
2019-05-21T09:42:23.273Z,7.53
2019-05-21T09:44:52.127Z,8.38
2019-05-21T09:47:20.976Z,7.30
2019-05-21T09:49:49.844Z,8.75
2019-05-21T09:52:18.687Z,7.30
2019-05-21T09:54:47.615Z,5.47
2019-05-21T09:57:18.124Z,6.42
2019-05-21T09:59:48.622Z,8.53
2019-05-21T10:02:19.109Z,5.87
2019-05-21T10:04:48.032Z,7.05
2019-05-21T10:07:16.955Z,6.10
2019-05-21T10:09:45.805Z,7.55
2019-05-21T10:12:14.671Z,7.12
2019-05-21T10:14:43.763Z,6.85
2019-05-21T10:17:12.617Z,7.00
2019-05-21T10:19:41.704Z,7.00
2019-05-21T10:22:10.819Z,7.55
2019-05-21T10:24:40.100Z,6.50
2019-05-21T10:27:08.961Z,6.20
2019-05-21T10:29:37.810Z,8.25
2019-05-21T10:32:06.983Z,6.28
2019-05-21T10:34:35.836Z,6.20
2019-05-21T10:37:04.763Z,5.30
2019-05-21T10:39:33.851Z,8.33
2019-05-21T10:42:02.801Z,6.25
2019-05-21T10:44:31.649Z,5.95
2019-05-21T10:47:00.734Z,6.95
2019-05-21T10:49:29.584Z,5.22
2019-05-21T10:51:58.443Z,7.65
2019-05-21T10:54:27.614Z,6.10
2019-05-21T10:56:57.456Z,6.45
2019-05-21T10:59:26.303Z,6.70
2019-05-21T11:02:05.643Z,5.08
2019-05-21T11:04:36.367Z,5.87
2019-05-21T11:07:05.486Z,5.53
2019-05-21T11:09:34.442Z,4.75
2019-05-21T11:12:03.348Z,5.17
2019-05-21T11:14:32.236Z,5.95
2019-05-21T11:17:01.082Z,5.15
2019-05-21T11:19:29.987Z,6.75
2019-05-21T11:21:58.845Z,6.40
2019-05-21T11:24:27.696Z,6.33
2019-05-21T11:26:56.579Z,8.23
2019-05-21T11:29:25.441Z,6.20
2019-05-21T11:31:57.499Z,7.50
2019-05-21T11:34:25.384Z,9.93
2019-05-21T11:36:54.305Z,10.08
2019-05-21T11:39:23.163Z,9.23
2019-05-21T11:41:52.023Z,10.20
2019-05-21T11:44:20.888Z,10.03
2019-05-21T11:46:49.738Z,8.13
2019-05-21T11:49:18.844Z,8.43
2019-05-21T11:51:47.668Z,8.80
2019-05-21T11:54:16.543Z,10.20
2019-05-21T11:56:45.388Z,9.53
2019-05-21T11:59:14.279Z,10.03
2019-05-21T12:01:43.186Z,9.43
2019-05-21T12:04:12.287Z,11.60
2019-05-21T12:06:41.143Z,10.78
2019-05-21T12:09:10.004Z,9.90
2019-05-21T12:11:38.855Z,12.25
2019-05-21T12:14:07.707Z,12.25
2019-05-21T12:16:36.953Z,12.58
2019-05-21T12:19:08.114Z,12.80
2019-05-21T12:21:36.498Z,12.88
2019-05-21T12:24:05.430Z,15.00
2019-05-21T12:26:34.306Z,14.58
2019-05-21T12:29:03.156Z,16.37
2019-05-21T12:31:32.020Z,17.27
2019-05-21T12:34:00.889Z,18.70
2019-05-21T12:36:29.736Z,17.62
2019-05-21T12:39:13.185Z,15.10
2019-05-21T12:41:29.163Z,15.10
2019-05-21T12:43:58.013Z,16.20
2019-05-21T12:46:26.881Z,15.48
2019-05-21T12:48:55.742Z,15.20
2019-05-21T12:51:24.645Z,15.88
2019-05-21T12:53:53.575Z,15.93
2019-05-21T12:56:22.415Z,18.35
2019-05-21T12:58:51.604Z,15.00
2019-05-21T13:01:20.475Z,14.63
2019-05-21T13:03:49.351Z,15.32
2019-05-21T13:06:18.543Z,14.73
2019-05-21T13:08:47.400Z,14.40
2019-05-21T13:11:16.257Z,16.65
2019-05-21T13:13:45.119Z,14.98
2019-05-21T13:16:13.987Z,13.35
2019-05-21T13:18:42.858Z,13.62
2019-05-21T13:21:12.778Z,12.50
2019-05-21T13:23:41.645Z,12.47
2019-05-21T13:26:10.504Z,14.87
2019-05-21T13:28:39.369Z,17.57
2019-05-21T13:31:08.247Z,14.43
2019-05-21T13:33:37.113Z,16.87
2019-05-21T13:36:06.062Z,17.77
2019-05-21T13:38:35.884Z,18.82
2019-05-21T13:41:05.624Z,18.75
2019-05-21T13:43:34.479Z,17.95
2019-05-21T13:46:03.611Z,19.15
2019-05-21T13:48:32.536Z,21.27
2019-05-21T13:51:01.403Z,20.37
2019-05-21T13:53:30.332Z,18.20
2019-05-21T13:55:59.441Z,17.62
2019-05-21T13:58:38.176Z,19.45
2019-05-21T14:01:07.774Z,15.70
2019-05-21T14:03:40.012Z,17.35
2019-05-21T14:06:08.928Z,17.82
2019-05-21T14:08:37.806Z,18.10
2019-05-21T14:11:06.658Z,18.92
2019-05-21T14:13:35.526Z,18.12
2019-05-21T14:16:04.755Z,17.40
2019-05-21T14:18:33.645Z,16.15
2019-05-21T14:21:03.974Z,17.90
2019-05-21T14:23:33.903Z,17.25
2019-05-21T14:26:03.211Z,19.07
2019-05-21T14:28:34.455Z,20.00
2019-05-21T14:31:02.821Z,20.92
2019-05-21T14:33:32.041Z,18.77
2019-05-21T14:36:01.212Z,19.70
2019-05-21T14:38:31.229Z,19.40
2019-05-21T14:41:00.121Z,17.48
2019-05-21T14:43:28.975Z,17.42
2019-05-21T14:45:57.847Z,16.70
2019-05-21T14:48:26.699Z,16.87
2019-05-21T14:50:55.564Z,15.83
2019-05-21T14:53:24.427Z,17.00
2019-05-21T14:55:53.287Z,17.07
2019-05-21T14:58:22.150Z,18.30
2019-05-21T15:00:52.193Z,17.25
2019-05-21T15:03:25.139Z,17.77
2019-05-21T15:05:52.324Z,20.88
2019-05-21T15:08:21.195Z,18.90
2019-05-21T15:10:50.091Z,20.55
2019-05-21T15:13:18.955Z,20.75
2019-05-21T15:15:47.819Z,19.75
2019-05-21T15:18:22.076Z,19.65
2019-05-21T15:20:51.669Z,20.97
2019-05-21T15:23:20.528Z,23.25
2019-05-21T15:25:49.416Z,21.70
2019-05-21T15:28:18.290Z,23.98
2019-05-21T15:30:47.278Z,24.57
2019-05-21T15:33:16.151Z,22.40
2019-05-21T15:35:45.036Z,24.90
2019-05-21T15:38:13.899Z,23.75
2019-05-21T15:40:42.757Z,25.20
2019-05-21T15:43:11.624Z,24.70
2019-05-21T15:45:40.484Z,25.85
2019-05-21T15:48:09.348Z,25.15
2019-05-21T15:50:38.228Z,24.98
2019-05-21T15:53:07.092Z,22.90
2019-05-21T15:55:37.038Z,27.10
2019-05-21T15:58:05.900Z,26.75
2019-05-21T16:00:34.799Z,23.87
2019-05-21T16:03:03.731Z,25.08
2019-05-21T16:05:32.755Z,25.32
2019-05-21T16:08:01.627Z,28.70
2019-05-21T16:10:30.552Z,28.25
2019-05-21T16:13:00.392Z,25.05
2019-05-21T16:15:29.310Z,28.38
2019-05-21T16:17:58.411Z,26.93
2019-05-21T16:20:28.352Z,28.00
2019-05-21T16:22:57.216Z,27.13
2019-05-21T16:25:26.246Z,25.23
2019-05-21T16:27:55.200Z,26.70
2019-05-21T16:30:24.055Z,26.50
2019-05-21T16:32:52.926Z,31.05
2019-05-21T16:35:22.580Z,26.65
2019-05-21T16:37:51.677Z,26.57
2019-05-21T16:40:20.539Z,27.67
2019-05-21T16:42:49.399Z,29.50
2019-05-21T16:45:19.831Z,29.85
2019-05-21T16:47:48.676Z,30.62
2019-05-21T16:50:17.599Z,29.55
2019-05-21T16:52:46.467Z,27.55
2019-05-21T16:55:15.411Z,29.90
2019-05-21T16:57:44.407Z,30.48
2019-05-21T17:00:15.287Z,29.67
2019-05-21T17:02:44.232Z,27.67
2019-05-21T17:05:13.347Z,31.45
2019-05-21T17:07:42.213Z,30.90
2019-05-21T17:10:11.540Z,32.73
2019-05-21T17:12:40.403Z,34.35
2019-05-21T17:15:09.612Z,32.10
2019-05-21T17:17:38.463Z,32.78
2019-05-21T17:20:08.191Z,30.72
2019-05-21T17:22:37.250Z,33.30
2019-05-21T17:25:06.848Z,35.38
2019-05-21T17:27:35.851Z,39.18
2019-05-21T17:30:08.205Z,39.38
2019-05-21T17:32:37.132Z,34.98
2019-05-21T17:35:07.425Z,33.23
2019-05-21T17:37:36.292Z,36.05
2019-05-21T17:40:05.692Z,37.25
2019-05-21T17:42:34.960Z,37.23
2019-05-21T17:45:10.112Z,37.08
2019-05-21T17:47:39.424Z,34.33
2019-05-21T17:50:08.760Z,40.58
2019-05-21T17:52:37.756Z,35.90
2019-05-21T17:55:07.111Z,36.40
2019-05-21T17:57:36.687Z,32.67
2019-05-21T18:00:06.873Z,34.78
2019-05-21T18:02:37.008Z,33.23
2019-05-21T18:05:06.975Z,33.48
2019-05-21T18:07:38.548Z,36.38
2019-05-21T18:10:09.819Z,33.98
2019-05-21T18:12:39.306Z,33.05
2019-05-21T18:15:10.012Z,32.67
2019-05-21T18:17:39.179Z,32.28
2019-05-21T18:20:09.494Z,36.80
2019-05-21T18:22:39.919Z,35.30
2019-05-21T18:25:10.231Z,34.80
2019-05-21T18:27:39.175Z,34.50
2019-05-21T18:30:08.623Z,35.13
2019-05-21T18:32:38.480Z,36.17
2019-05-21T18:35:08.130Z,36.90
2019-05-21T18:37:41.128Z,36.28
2019-05-21T18:40:13.210Z,35.95
2019-05-21T18:42:42.392Z,38.30
2019-05-21T18:45:11.884Z,38.67
2019-05-21T18:47:40.748Z,39.85
2019-05-21T18:50:09.678Z,40.85
2019-05-21T18:52:38.933Z,45.30
2019-05-21T18:55:08.263Z,44.03
2019-05-21T18:57:37.127Z,44.08
2019-05-21T19:00:09.697Z,46.80
2019-05-21T19:02:40.225Z,48.75
2019-05-21T19:05:09.836Z,43.02
2019-05-21T19:07:38.884Z,44.65
2019-05-21T19:10:08.667Z,48.05
2019-05-21T19:12:39.271Z,48.65
2019-05-21T19:15:08.900Z,48.00
2019-05-21T19:17:37.882Z,49.18
2019-05-21T19:20:07.312Z,46.08
2019-05-21T19:22:36.239Z,45.98
2019-05-21T19:25:08.621Z,46.50
2019-05-21T19:27:38.648Z,50.60
2019-05-21T19:30:09.322Z,46.83
2019-05-21T19:32:38.247Z,47.73
2019-05-21T19:35:14.850Z,46.73
2019-05-21T19:37:43.851Z,47.27
2019-05-21T19:40:13.299Z,46.63
2019-05-21T19:42:54.562Z,43.25
2019-05-21T19:45:14.321Z,43.05
2019-05-21T19:47:43.279Z,43.83
2019-05-21T19:50:12.247Z,47.15
2019-05-21T19:52:41.103Z,44.08
2019-05-21T19:55:10.112Z,44.70
2019-05-21T19:57:39.919Z,43.25
2019-05-21T20:00:09.179Z,42.73
2019-05-21T20:02:39.580Z,45.60
2019-05-21T20:05:08.877Z,47.00
2019-05-21T20:07:38.676Z,44.10
2019-05-21T20:10:07.908Z,41.92
2019-05-21T20:12:36.916Z,45.80
2019-05-21T20:15:06.909Z,48.20
2019-05-21T20:17:36.816Z,44.90
2019-05-21T20:20:07.199Z,43.23
2019-05-21T20:22:37.210Z,43.75
2019-05-21T20:25:07.312Z,44.73
2019-05-21T20:27:36.294Z,44.50
2019-05-21T20:30:12.675Z,45.90
2019-05-21T20:32:38.840Z,42.88
2019-05-21T20:35:08.877Z,43.15
2019-05-21T20:37:39.360Z,43.48
2019-05-21T20:40:08.948Z,41.15
2019-05-21T20:42:38.075Z,47.25
2019-05-21T20:45:08.673Z,43.73
2019-05-21T20:47:37.612Z,44.95
2019-05-21T20:50:11.789Z,42.13
2019-05-21T20:52:39.759Z,42.95
2019-05-21T20:55:08.964Z,42.50
2019-05-21T20:57:38.903Z,42.38
2019-05-21T21:00:10.383Z,43.95
2019-05-21T21:02:41.395Z,45.48
2019-05-21T21:05:10.650Z,41.65
2019-05-21T21:07:39.549Z,45.35
2019-05-21T21:10:09.355Z,43.80
2019-05-21T21:12:40.243Z,43.23
2019-05-21T21:15:10.046Z,46.35
2019-05-21T21:17:39.572Z,43.87
2019-05-21T21:20:08.811Z,47.58
2019-05-21T21:22:37.676Z,48.17
2019-05-21T21:25:07.079Z,45.70
2019-05-21T21:27:36.390Z,50.05
2019-05-21T21:30:06.323Z,49.38
2019-05-21T21:32:35.650Z,46.18
2019-05-21T21:35:06.350Z,47.90
2019-05-21T21:37:35.444Z,47.08
2019-05-21T21:40:06.747Z,49.98
2019-05-21T21:42:35.608Z,47.43
2019-05-21T21:45:05.436Z,48.02
2019-05-21T21:47:34.711Z,49.00
2019-05-21T21:50:06.383Z,46.28
2019-05-21T21:52:35.633Z,47.30
2019-05-21T21:55:05.559Z,45.03
2019-05-21T21:57:34.488Z,45.83
2019-05-21T22:00:05.267Z,47.83
2019-05-21T22:02:35.820Z,45.78
2019-05-21T22:05:06.292Z,44.33
2019-05-21T22:07:38.162Z,46.10
2019-05-21T22:10:08.569Z,44.35
2019-05-21T22:12:37.428Z,45.08
2019-05-21T22:15:07.634Z,46.85
2019-05-21T22:17:36.488Z,49.42
2019-05-21T22:20:08.059Z,46.35
2019-05-21T22:22:37.120Z,49.33
2019-05-21T22:25:06.820Z,48.85
2019-05-21T22:27:35.682Z,46.77
2019-05-21T22:30:06.043Z,49.15
2019-05-21T22:32:34.992Z,44.23
2019-05-21T22:35:04.619Z,45.60
2019-05-21T22:37:33.656Z,43.55
2019-05-21T22:40:02.869Z,42.53
2019-05-21T22:42:32.163Z,44.90
2019-05-21T22:45:07.905Z,43.08
2019-05-21T22:47:31.651Z,43.10
2019-05-21T22:50:00.512Z,44.10
2019-05-21T22:52:29.375Z,44.33
2019-05-21T22:54:58.235Z,44.53
2019-05-21T22:57:28.183Z,46.23
2019-05-21T22:59:57.268Z,44.67
2019-05-21T23:02:27.771Z,43.63
2019-05-21T23:04:56.622Z,42.10
2019-05-21T23:07:25.716Z,45.75
2019-05-21T23:09:55.155Z,44.35
2019-05-21T23:12:24.031Z,43.52
2019-05-21T23:14:53.040Z,47.17
2019-05-21T23:17:23.583Z,44.30
2019-05-21T23:20:01.167Z,44.90
2019-05-21T23:22:31.639Z,45.98
2019-05-21T23:25:00.503Z,45.28
2019-05-21T23:27:29.899Z,48.35
2019-05-21T23:29:59.004Z,45.88
2019-05-21T23:32:27.866Z,51.70
2019-05-21T23:34:56.899Z,50.70
2019-05-21T23:37:27.691Z,50.48
2019-05-21T23:39:57.389Z,51.33
2019-05-21T23:42:29.809Z,54.20
2019-05-21T23:44:57.884Z,55.10
2019-05-21T23:47:27.696Z,50.48
2019-05-21T23:49:57.030Z,51.55
2019-05-21T23:52:25.966Z,52.08
2019-05-21T23:54:54.834Z,48.83
2019-05-21T23:57:28.236Z,45.73
2019-05-21T23:59:57.171Z,48.33
